Time;durP1;ratioP1;P1;durP2;ratioP2;P2;SDS_P1;SDS_P2;PMS_P1;PMS_P2;Temp;Humidity;BMP_temperature;BMP_pressure;BME280_temperature;BME280_humidity;BME280_pressure;Samples;Min_cycle;Max_cycle;Signal;HPM_P1;HPM_P2
2023/12/03 00:02:00;;;;;;;33.60;14.95;;;-1.10;99.90;;;;;;5024086;28;20029;-79
2023/12/03 00:04:25;;;;;;;36.33;16.55;;;-1.10;99.90;;;;;;5023699;28;20041;-79
2023/12/03 00:06:52;;;;;;;38.25;15.82;;;-1.10;99.90;;;;;;5025750;28;20060;-79
2023/12/03 00:09:18;;;;;;;44.78;16.00;;;-1.10;99.90;;;;;;5035436;28;20406;-79
2023/12/03 00:11:43;;;;;;;36.80;15.65;;;-1.10;99.90;;;;;;5040843;28;20040;-80
2023/12/03 00:14:09;;;;;;;37.60;16.38;;;-1.10;99.90;;;;;;4998910;28;20484;-80
2023/12/03 00:16:34;;;;;;;33.70;15.48;;;-1.10;99.90;;;;;;4999228;28;20377;-79
2023/12/03 00:19:00;;;;;;;31.85;15.75;;;-1.10;99.90;;;;;;4999295;28;20037;-79
2023/12/03 00:21:25;;;;;;;41.55;17.27;;;-1.10;99.90;;;;;;5000147;28;20152;-79
2023/12/03 00:23:51;;;;;;;41.95;16.20;;;-1.10;99.90;;;;;;5019325;28;20064;-80
2023/12/03 00:26:17;;;;;;;32.28;15.23;;;-1.10;99.90;;;;;;5038254;28;20032;-80
2023/12/03 00:28:42;;;;;;;35.33;15.40;;;-1.10;99.90;;;;;;5038181;28;20072;-79
2023/12/03 00:31:08;;;;;;;124.32;71.85;;;-1.10;99.90;;;;;;5027457;28;20033;-79
2023/12/03 00:33:33;;;;;;;37.80;16.23;;;-1.10;99.90;;;;;;5015014;28;20513;-80
2023/12/03 00:35:59;;;;;;;33.72;15.95;;;-1.10;99.90;;;;;;4998893;28;20052;-80
2023/12/03 00:38:25;;;;;;;34.13;14.88;;;-1.20;99.90;;;;;;5002098;28;20041;-80
2023/12/03 00:40:51;;;;;;;34.47;15.20;;;-1.20;99.90;;;;;;5026270;28;20503;-80
2023/12/03 00:43:16;;;;;;;35.92;15.80;;;-1.20;99.90;;;;;;5034511;28;20049;-80
2023/12/03 00:45:42;;;;;;;33.03;16.50;;;-1.20;99.90;;;;;;5034185;28;20037;-80
2023/12/03 00:48:08;;;;;;;29.35;13.65;;;-1.30;99.90;;;;;;5034239;28;20461;-80
2023/12/03 00:50:33;;;;;;;135.00;75.03;;;-1.30;99.90;;;;;;5029415;28;20045;-79
2023/12/03 00:52:59;;;;;;;44.00;18.33;;;-1.30;99.90;;;;;;5028158;28;20119;-79
2023/12/03 00:55:25;;;;;;;42.17;18.38;;;-1.20;99.90;;;;;;5034066;28;20037;-80
2023/12/03 00:57:50;;;;;;;45.28;17.77;;;-1.10;99.90;;;;;;5025225;28;20041;-79
2023/12/03 01:00:17;;;;;;;45.25;18.35;;;-1.00;99.90;;;;;;5014934;28;20141;-79
2023/12/03 01:02:42;;;;;;;53.00;18.60;;;-0.90;99.90;;;;;;5014587;28;20114;-80
2023/12/03 01:05:08;;;;;;;214.73;102.32;;;-0.80;99.90;;;;;;4998216;28;20554;-80
2023/12/03 01:07:34;;;;;;;66.40;23.42;;;-0.70;99.90;;;;;;5020604;28;20132;-79
2023/12/03 01:10:00;;;;;;;232.63;107.07;;;-0.60;99.90;;;;;;5037708;28;20513;-79
2023/12/03 01:12:25;;;;;;;68.65;21.23;;;-0.50;99.90;;;;;;4999762;28;20033;-79
2023/12/03 01:14:51;;;;;;;73.90;22.67;;;-0.50;99.90;;;;;;5034928;28;21111;-79
2023/12/03 01:17:16;;;;;;;231.55;107.28;;;-0.40;99.90;;;;;;5028529;28;20060;-80
2023/12/03 01:19:42;;;;;;;233.20;112.63;;;-0.40;99.90;;;;;;5032829;28;20041;-79
2023/12/03 01:22:08;;;;;;;89.38;23.25;;;-0.30;99.90;;;;;;5036205;28;20134;-80
2023/12/03 01:24:34;;;;;;;84.57;23.20;;;-0.30;99.90;;;;;;5033694;28;20044;-79
2023/12/03 01:26:59;;;;;;;424.73;133.77;;;-0.30;99.90;;;;;;5050279;28;20047;-79
2023/12/03 01:29:25;;;;;;;111.25;25.95;;;-0.20;99.90;;;;;;5031435;28;20037;-79
2023/12/03 01:31:50;;;;;;;120.53;25.23;;;-0.20;99.90;;;;;;5008269;28;20052;-79
2023/12/03 01:34:16;;;;;;;136.85;26.35;;;-0.20;99.90;;;;;;4999871;28;20044;-79
2023/12/03 01:36:41;;;;;;;182.38;27.88;;;-0.20;99.90;;;;;;5033792;28;20082;-79
2023/12/03 01:39:07;;;;;;;461.15;135.70;;;-0.20;99.90;;;;;;5033455;28;20047;-80
2023/12/03 01:41:32;;;;;;;436.13;133.68;;;-0.10;99.90;;;;;;5031974;28;20348;-79
2023/12/03 01:43:58;;;;;;;431.73;134.45;;;-0.10;99.90;;;;;;5052734;28;20410;-80
2023/12/03 01:46:24;;;;;;;426.25;134.00;;;0.00;99.90;;;;;;5037035;28;20553;-79
2023/12/03 01:48:50;;;;;;;130.15;25.85;;;-0.10;99.90;;;;;;5037170;28;20486;-79
2023/12/03 01:51:16;;;;;;;132.18;25.13;;;0.00;99.90;;;;;;5018015;28;20042;-80
2023/12/03 01:53:43;;;;;;;100.30;23.20;;;0.00;99.90;;;;;;4997417;28;20399;-79
2023/12/03 01:56:10;;;;;;;372.38;121.50;;;0.00;99.90;;;;;;4997497;28;20040;-80
2023/12/03 01:58:36;;;;;;;398.80;123.13;;;0.00;99.90;;;;;;5029875;28;20041;-80
2023/12/03 02:01:02;;;;;;;440.73;130.38;;;0.10;99.90;;;;;;5029701;28;20040;-80
2023/12/03 02:03:28;;;;;;;421.80;130.68;;;0.10;99.90;;;;;;5037452;28;20040;-80
2023/12/03 02:06:08;;;;;;;139.88;24.35;;;0.10;99.90;;;;;;5037470;28;20040;-79
2023/12/03 02:08:35;;;;;;;141.25;25.10;;;0.10;99.90;;;;;;5054263;28;20120;-81
2023/12/03 02:11:02;;;;;;;100.45;24.40;;;0.10;99.90;;;;;;5037573;28;20040;-79
2023/12/03 02:13:30;;;;;;;472.00;134.13;;;0.10;99.90;;;;;;5054318;28;20398;-80
2023/12/03 02:15:56;;;;;;;144.68;26.17;;;0.20;99.90;;;;;;5057145;28;20045;-80
2023/12/03 02:18:22;;;;;;;132.57;24.00;;;0.20;99.90;;;;;;5040716;28;20036;-80
2023/12/03 02:20:47;;;;;;;434.05;126.55;;;0.20;99.90;;;;;;5046293;28;20450;-80
2023/12/03 02:23:14;;;;;;;144.45;26.15;;;0.20;99.90;;;;;;5001073;28;20435;-80
2023/12/03 02:25:43;;;;;;;493.65;134.15;;;0.30;99.90;;;;;;5017498;28;20076;-80
2023/12/03 02:28:09;;;;;;;505.48;134.98;;;0.30;99.90;;;;;;5016129;28;20410;-80
2023/12/03 02:30:35;;;;;;;520.58;140.48;;;0.30;99.90;;;;;;5030104;28;20124;-81
2023/12/03 02:33:00;;;;;;;537.67;141.02;;;0.30;99.90;;;;;;5036934;28;20041;-81
2023/12/03 02:35:26;;;;;;;511.75;136.90;;;0.40;99.90;;;;;;5037035;28;20037;-80
2023/12/03 02:37:51;;;;;;;502.73;134.52;;;0.40;99.90;;;;;;5037094;28;20079;-81
2023/12/03 02:40:17;;;;;;;526.35;140.82;;;0.40;99.90;;;;;;5036251;28;20094;-81
2023/12/03 02:42:42;;;;;;;200.77;32.03;;;0.40;99.90;;;;;;5036079;28;20034;-81
2023/12/03 02:45:09;;;;;;;146.20;26.35;;;0.40;99.90;;;;;;5039267;28;20036;-79
2023/12/03 02:47:35;;;;;;;530.58;139.57;;;0.40;99.90;;;;;;5040334;28;20033;-81
2023/12/03 02:50:01;;;;;;;127.22;23.70;;;0.40;99.90;;;;;;5036184;28;20037;-81
2023/12/03 02:52:26;;;;;;;147.50;24.30;;;0.40;99.90;;;;;;5037236;28;20132;-81
2023/12/03 02:54:53;;;;;;;130.85;24.52;;;0.40;99.90;;;;;;5034689;28;20037;-81
2023/12/03 02:57:18;;;;;;;495.65;127.63;;;0.40;99.90;;;;;;5046221;28;20048;-80
2023/12/03 02:59:44;;;;;;;140.20;26.27;;;0.40;99.90;;;;;;5010132;28;20463;-80
2023/12/03 03:02:09;;;;;;;447.58;119.70;;;0.50;99.90;;;;;;5000658;28;20403;-80
2023/12/03 03:04:35;;;;;;;462.58;119.10;;;0.50;99.90;;;;;;5000121;28;20124;-80
2023/12/03 03:07:01;;;;;;;417.58;113.10;;;0.50;99.90;;;;;;5011829;28;20033;-80
2023/12/03 03:09:26;;;;;;;451.65;116.75;;;0.50;99.90;;;;;;5056319;28;20098;-80
2023/12/03 03:11:53;;;;;;;103.65;21.23;;;0.50;99.90;;;;;;5021378;28;20045;-80
2023/12/03 03:14:19;;;;;;;369.55;102.68;;;0.50;99.90;;;;;;5036038;28;20037;-80
2023/12/03 03:16:45;;;;;;;349.50;98.28;;;0.50;99.90;;;;;;5033564;28;20087;-80
2023/12/03 03:19:10;;;;;;;96.65;21.08;;;0.50;99.90;;;;;;5055981;28;20052;-80
2023/12/03 03:21:40;;;;;;;90.32;21.83;;;0.50;99.90;;;;;;5022628;28;20075;-80
2023/12/03 03:24:06;;;;;;;390.77;105.80;;;0.50;99.90;;;;;;5052364;28;20395;-80
2023/12/03 03:26:31;;;;;;;414.83;107.10;;;0.50;99.90;;;;;;5035996;28;20040;-80
2023/12/03 03:28:57;;;;;;;489.88;110.65;;;0.60;99.90;;;;;;5036126;28;20041;-80
2023/12/03 03:31:22;;;;;;;354.60;87.25;;;0.60;99.90;;;;;;5041454;28;20040;-79
2023/12/03 03:33:50;;;;;;;317.85;80.75;;;0.60;99.90;;;;;;5043753;28;20032;-80
2023/12/03 03:36:16;;;;;;;399.27;84.68;;;0.60;99.90;;;;;;5056042;28;20044;-80
2023/12/03 03:38:43;;;;;;;315.67;78.68;;;0.60;99.90;;;;;;5039215;28;20041;-80
2023/12/03 03:41:09;;;;;;;88.28;17.33;;;0.60;99.90;;;;;;5026924;28;20669;-80
2023/12/03 03:43:34;;;;;;;284.45;72.68;;;0.60;99.90;;;;;;5043054;28;20029;-80
2023/12/03 03:46:00;;;;;;;278.23;69.28;;;0.60;99.90;;;;;;5047101;28;20086;-80
2023/12/03 03:48:26;;;;;;;280.05;68.80;;;0.60;99.90;;;;;;5039110;28;20486;-80
2023/12/03 03:50:51;;;;;;;86.40;16.85;;;0.60;99.90;;;;;;5044853;28;20120;-80
2023/12/03 03:53:17;;;;;;;87.30;16.33;;;0.60;99.90;;;;;;5035646;28;20051;-80
2023/12/03 03:55:43;;;;;;;71.85;16.38;;;0.60;99.90;;;;;;5035059;28;20083;-80
2023/12/03 03:58:08;;;;;;;286.70;71.97;;;0.60;99.90;;;;;;5030698;28;20037;-80
2023/12/03 04:00:34;;;;;;;358.25;80.88;;;0.60;99.90;;;;;;5024425;28;20033;-80
2023/12/03 04:02:59;;;;;;;305.88;77.35;;;0.60;99.90;;;;;;4999211;28;20399;-80
2023/12/03 04:05:25;;;;;;;353.92;81.85;;;0.70;99.90;;;;;;5015692;28;20095;-80
2023/12/03 04:07:51;;;;;;;348.67;80.70;;;0.70;99.90;;;;;;5016822;28;20060;-80
2023/12/03 04:10:16;;;;;;;107.18;18.40;;;0.70;99.90;;;;;;5034709;28;20402;-80
2023/12/03 04:12:42;;;;;;;319.83;78.88;;;0.70;99.90;;;;;;5042367;28;20037;-80
2023/12/03 04:15:08;;;;;;;122.53;21.38;;;0.70;99.90;;;;;;5054678;28;20041;-80
2023/12/03 04:17:34;;;;;;;349.98;83.15;;;0.70;99.90;;;;;;5023066;28;20040;-79
2023/12/03 04:19:59;;;;;;;119.30;20.33;;;0.80;99.90;;;;;;5034799;28;20048;-80
2023/12/03 04:22:25;;;;;;;361.90;82.53;;;0.70;99.90;;;;;;5031329;28;20099;-81
2023/12/03 04:24:51;;;;;;;386.92;82.57;;;0.80;99.90;;;;;;5049509;28;20033;-80
2023/12/03 04:27:17;;;;;;;397.80;84.13;;;0.80;99.90;;;;;;5042118;28;20041;-79
2023/12/03 04:29:42;;;;;;;404.30;83.28;;;0.80;99.90;;;;;;5034603;28;20036;-80
2023/12/03 04:32:08;;;;;;;364.67;79.07;;;0.80;99.90;;;;;;5015190;28;20045;-80
2023/12/03 04:34:34;;;;;;;134.43;19.60;;;0.80;99.90;;;;;;4998438;28;20047;-80
2023/12/03 04:36:59;;;;;;;316.67;75.85;;;0.80;99.90;;;;;;5033909;28;20044;-80
2023/12/03 04:39:25;;;;;;;371.98;79.78;;;0.90;99.90;;;;;;5034640;28;20041;-80
2023/12/03 04:41:50;;;;;;;338.92;77.55;;;0.90;99.90;;;;;;5003061;28;20044;-80
2023/12/03 04:44:16;;;;;;;102.20;19.83;;;0.90;99.90;;;;;;5014670;28;20428;-80
2023/12/03 04:46:42;;;;;;;467.92;89.97;;;0.90;99.90;;;;;;5019571;28;20154;-80
2023/12/03 04:49:07;;;;;;;399.67;87.05;;;0.90;99.90;;;;;;5043791;28;20407;-80
2023/12/03 04:51:33;;;;;;;391.63;90.90;;;0.90;99.90;;;;;;5004169;28;20397;-80
2023/12/03 04:53:59;;;;;;;116.50;20.05;;;0.90;99.90;;;;;;5014427;28;20049;-80
2023/12/03 04:56:25;;;;;;;382.17;88.45;;;0.90;99.90;;;;;;4998571;28;20048;-80
2023/12/03 04:58:51;;;;;;;362.77;83.68;;;0.90;99.90;;;;;;4998182;28;20432;-80
2023/12/03 05:01:17;;;;;;;409.83;90.57;;;1.00;99.90;;;;;;5014575;28;20128;-80
2023/12/03 05:03:43;;;;;;;399.05;89.70;;;1.00;99.90;;;;;;5033572;28;20045;-80
2023/12/03 05:06:08;;;;;;;401.13;86.45;;;1.00;99.90;;;;;;5037609;28;20036;-80
2023/12/03 05:08:34;;;;;;;404.42;89.88;;;0.90;99.90;;;;;;5049844;28;20514;-80
2023/12/03 05:11:06;;;;;;;426.23;92.82;;;1.00;99.90;;;;;;4998286;28;20045;-80
2023/12/03 05:13:32;;;;;;;451.83;93.18;;;1.00;99.90;;;;;;5014303;28;20076;-80
2023/12/03 05:16:00;;;;;;;389.92;89.68;;;1.00;99.90;;;;;;5014674;28;20091;-80
2023/12/03 05:18:25;;;;;;;394.73;90.05;;;1.00;99.90;;;;;;5044386;28;20059;-80
2023/12/03 05:20:51;;;;;;;129.70;20.65;;;1.00;99.90;;;;;;5025015;28;20041;-80
2023/12/03 05:23:17;;;;;;;339.42;87.00;;;1.00;99.90;;;;;;5033792;28;20041;-80
2023/12/03 05:25:42;;;;;;;372.90;86.45;;;1.00;99.90;;;;;;5034115;28;20037;-80
2023/12/03 05:28:08;;;;;;;389.25;85.65;;;1.00;99.90;;;;;;5032808;28;20045;-80
2023/12/03 05:30:33;;;;;;;327.95;78.60;;;1.00;99.90;;;;;;5016907;28;20051;-80
2023/12/03 05:32:59;;;;;;;324.02;78.40;;;1.00;99.90;;;;;;5021991;28;20036;-80
2023/12/03 05:35:24;;;;;;;341.20;77.80;;;1.00;99.90;;;;;;5037039;28;20403;-79
2023/12/03 05:37:50;;;;;;;338.35;76.25;;;1.00;99.90;;;;;;5053791;28;20464;-80
2023/12/03 05:40:15;;;;;;;375.50;80.25;;;1.00;99.90;;;;;;5040536;28;20038;-80
2023/12/03 05:42:41;;;;;;;266.52;70.25;;;1.00;99.90;;;;;;5024327;28;20082;-80
2023/12/03 05:45:08;;;;;;;385.75;76.70;;;1.10;99.90;;;;;;5016781;28;20040;-80
2023/12/03 05:47:34;;;;;;;359.73;74.30;;;1.10;99.90;;;;;;5031479;28;20475;-80
2023/12/03 05:50:01;;;;;;;300.95;68.55;;;1.10;99.90;;;;;;4997825;28;20033;-80
2023/12/03 05:52:30;;;;;;;270.92;65.95;;;1.10;99.90;;;;;;5014057;28;20128;-80
2023/12/03 05:54:55;;;;;;;351.50;73.60;;;1.10;99.90;;;;;;5001610;28;20056;-80
2023/12/03 05:57:21;;;;;;;258.40;65.95;;;1.10;99.90;;;;;;5026841;28;20044;-80
2023/12/03 05:59:47;;;;;;;96.30;16.85;;;1.10;99.90;;;;;;5034892;28;20126;-79
2023/12/03 06:02:13;;;;;;;66.18;15.15;;;1.10;99.90;;;;;;5035635;28;20531;-80
2023/12/03 06:04:39;;;;;;;354.80;71.50;;;1.00;99.90;;;;;;5035026;28;20037;-80
2023/12/03 06:07:05;;;;;;;288.58;65.10;;;1.10;99.90;;;;;;5035135;28;20087;-80
2023/12/03 06:09:30;;;;;;;274.52;65.78;;;1.10;99.90;;;;;;5034909;28;20167;-81
2023/12/03 06:11:56;;;;;;;285.65;66.68;;;1.10;99.90;;;;;;5025928;28;20446;-80
2023/12/03 06:14:21;;;;;;;372.33;72.63;;;1.10;99.90;;;;;;5019292;28;20036;-80
2023/12/03 06:16:47;;;;;;;270.45;67.38;;;1.10;99.90;;;;;;5037568;28;20029;-80
2023/12/03 06:19:13;;;;;;;102.10;18.23;;;1.10;99.90;;;;;;5035440;28;20127;-79
2023/12/03 06:21:38;;;;;;;246.23;69.13;;;1.10;99.90;;;;;;5005084;28;20041;-80
2023/12/03 06:24:05;;;;;;;302.08;73.40;;;1.10;99.90;;;;;;5017216;28;20045;-80
2023/12/03 06:26:31;;;;;;;295.15;71.88;;;1.10;99.90;;;;;;5031340;28;20075;-79
2023/12/03 06:28:57;;;;;;;375.95;77.45;;;1.10;99.90;;;;;;5038568;28;20084;-80
2023/12/03 06:31:22;;;;;;;352.80;74.68;;;1.20;99.90;;;;;;5033542;28;20503;-80
2023/12/03 06:33:48;;;;;;;96.07;18.85;;;1.20;99.90;;;;;;5034067;28;20037;-80
2023/12/03 06:36:14;;;;;;;325.08;71.60;;;1.10;99.90;;;;;;5019745;28;20450;-80
2023/12/03 06:38:39;;;;;;;305.98;68.15;;;1.10;99.90;;;;;;5049635;28;20059;-79
2023/12/03 06:41:05;;;;;;;267.92;65.30;;;1.20;99.90;;;;;;5026919;28;20073;-79
2023/12/03 06:43:31;;;;;;;296.58;68.57;;;1.20;99.90;;;;;;5032128;28;20092;-80
2023/12/03 06:45:58;;;;;;;79.53;15.77;;;1.20;99.90;;;;;;5015049;28;20042;-81
2023/12/03 06:48:24;;;;;;;81.63;15.75;;;1.20;99.90;;;;;;5001239;28;20033;-80
2023/12/03 06:50:50;;;;;;;270.90;65.35;;;1.10;99.90;;;;;;5016036;28;20044;-79
2023/12/03 06:53:15;;;;;;;265.95;64.45;;;1.10;99.90;;;;;;5024355;28;20041;-80
2023/12/03 06:55:41;;;;;;;253.15;64.30;;;1.20;99.90;;;;;;5002941;28;20399;-80
2023/12/03 06:58:06;;;;;;;355.05;70.82;;;1.20;99.90;;;;;;5003032;28;20073;-80
2023/12/03 07:00:32;;;;;;;271.00;64.43;;;1.20;99.90;;;;;;5022304;28;20037;-80
2023/12/03 07:02:58;;;;;;;282.77;66.20;;;1.20;99.90;;;;;;5038112;28;20044;-80
2023/12/03 07:05:24;;;;;;;297.52;68.85;;;1.20;99.90;;;;;;5055601;28;20196;-80
2023/12/03 07:07:51;;;;;;;244.05;66.68;;;1.20;99.90;;;;;;5038408;28;20140;-80
2023/12/03 07:10:17;;;;;;;298.00;71.80;;;1.20;99.90;;;;;;5038733;28;20037;-80
2023/12/03 07:12:43;;;;;;;221.40;65.88;;;1.20;99.90;;;;;;5038760;28;20048;-79
2023/12/03 07:15:08;;;;;;;231.20;66.35;;;1.20;99.90;;;;;;5030922;28;20041;-80
2023/12/03 07:17:34;;;;;;;230.45;67.22;;;1.20;99.90;;;;;;5010744;28;20045;-79
2023/12/03 07:20:00;;;;;;;250.20;69.38;;;1.20;99.90;;;;;;5019954;28;20051;-81
2023/12/03 07:22:25;;;;;;;292.88;71.20;;;1.20;99.90;;;;;;5030029;28;20116;-82
2023/12/03 07:24:52;;;;;;;245.10;68.28;;;1.20;99.90;;;;;;5039300;28;20039;-79
2023/12/03 07:27:18;;;;;;;198.98;63.35;;;1.30;99.90;;;;;;5029292;28;20467;-80
2023/12/03 07:29:44;;;;;;;261.40;68.15;;;1.30;99.90;;;;;;5000320;28;20072;-81
2023/12/03 07:32:09;;;;;;;292.75;76.47;;;1.30;99.90;;;;;;5011851;28;20079;-81
2023/12/03 07:34:35;;;;;;;190.27;65.70;;;1.30;99.90;;;;;;5032847;28;20487;-81
2023/12/03 07:37:02;;;;;;;269.40;70.30;;;1.30;99.90;;;;;;5036997;28;20215;-81
2023/12/03 07:39:28;;;;;;;230.35;69.47;;;1.30;99.90;;;;;;5036033;28;20079;-83
2023/12/03 07:41:54;;;;;;;223.90;70.07;;;1.30;99.90;;;;;;5036059;28;20625;-81
2023/12/03 07:44:21;;;;;;;220.70;67.63;;;1.30;99.90;;;;;;5035980;28;20410;-81
2023/12/03 07:46:46;;;;;;;211.43;70.88;;;1.30;99.90;;;;;;5019350;28;20037;-81
2023/12/03 07:49:12;;;;;;;179.48;67.45;;;1.30;99.90;;;;;;5035890;28;20115;-81
2023/12/03 07:51:38;;;;;;;252.15;74.30;;;1.30;99.90;;;;;;5032604;28;20048;-78
2023/12/03 07:54:03;;;;;;;65.30;18.45;;;1.30;99.90;;;;;;5015142;28;20037;-79
2023/12/03 07:56:36;;;;;;;243.00;72.78;;;1.20;99.90;;;;;;5012695;28;20041;-79
2023/12/03 07:59:02;;;;;;;;;;;1.20;99.90;;;;;;5016359;28;20513;-79
2023/12/03 08:01:27;;;;;;;183.25;63.53;;;1.10;99.90;;;;;;5015935;28;20015;-81
2023/12/03 08:03:53;;;;;;;187.82;65.47;;;1.00;99.90;;;;;;5023720;28;20033;-79
2023/12/03 08:06:19;;;;;;;190.13;65.60;;;1.00;99.90;;;;;;5039901;28;20044;-78
2023/12/03 08:08:44;;;;;;;252.45;70.28;;;0.90;99.90;;;;;;5029684;28;20567;-80
2023/12/03 08:11:10;;;;;;;47.78;16.50;;;0.80;99.90;;;;;;5013543;28;20518;-79
2023/12/03 08:13:36;;;;;;;47.55;15.43;;;0.80;99.90;;;;;;5014948;28;20407;-80
2023/12/03 08:16:05;;;;;;;40.45;18.10;;;0.70;99.90;;;;;;5043401;28;20128;-79
2023/12/03 08:18:31;;;;;;;345.30;89.00;;;0.70;99.90;;;;;;5054445;28;20411;-79
2023/12/03 08:20:57;;;;;;;230.43;83.40;;;0.80;99.90;;;;;;5044837;28;20040;-80
2023/12/03 08:23:23;;;;;;;222.55;85.78;;;0.80;99.90;;;;;;5038103;28;20033;-80
2023/12/03 08:25:49;;;;;;;354.15;96.53;;;0.90;99.90;;;;;;5054920;28;20090;-79
2023/12/03 08:28:15;;;;;;;183.45;83.57;;;0.90;99.90;;;;;;5038414;28;20402;-79
2023/12/03 08:30:40;;;;;;;205.38;87.68;;;0.90;99.90;;;;;;5050092;28;20044;-79
2023/12/03 08:33:06;;;;;;;361.55;108.25;;;0.90;99.90;;;;;;5038000;28;20041;-80
2023/12/03 08:35:31;;;;;;;214.02;95.75;;;0.90;99.90;;;;;;5054622;28;20454;-79
2023/12/03 08:37:57;;;;;;;243.02;97.00;;;0.80;99.90;;;;;;5054686;28;20036;-79
2023/12/03 08:40:23;;;;;;;181.88;93.45;;;0.80;99.90;;;;;;5049322;28;20044;-79
2023/12/03 08:42:49;;;;;;;175.02;94.72;;;0.70;99.90;;;;;;5054411;28;20078;-80
2023/12/03 08:45:15;;;;;;;72.25;24.58;;;0.80;99.90;;;;;;5054321;28;20085;-80
2023/12/03 08:47:41;;;;;;;65.03;25.58;;;0.80;99.90;;;;;;5038026;28;20033;-79
2023/12/03 08:50:07;;;;;;;188.40;98.88;;;0.80;99.90;;;;;;5054600;28;20053;-79
2023/12/03 08:52:33;;;;;;;69.05;27.40;;;0.80;99.90;;;;;;5052532;28;20036;-79
2023/12/03 08:55:00;;;;;;;120.10;86.93;;;0.80;99.90;;;;;;5037299;28;20055;-80
2023/12/03 08:57:25;;;;;;;236.40;110.97;;;0.80;99.90;;;;;;5054734;28;20156;-79
2023/12/03 08:59:53;;;;;;;62.15;26.10;;;0.90;99.90;;;;;;5036096;28;20525;-79
2023/12/03 09:02:22;;;;;;;147.85;93.25;;;0.90;99.90;;;;;;5040531;28;20075;-80
2023/12/03 09:04:50;;;;;;;164.27;95.82;;;0.90;99.90;;;;;;5026939;28;20143;-79
2023/12/03 09:07:15;;;;;;;175.77;99.82;;;0.90;99.90;;;;;;5037478;28;20082;-79
2023/12/03 09:09:42;;;;;;;245.80;113.07;;;0.80;99.90;;;;;;5037502;28;20127;-79
2023/12/03 09:12:08;;;;;;;56.55;24.98;;;0.90;99.90;;;;;;5054550;28;20036;-79
2023/12/03 09:14:33;;;;;;;148.55;96.07;;;0.90;99.90;;;;;;5034637;28;20044;-79
2023/12/03 09:16:59;;;;;;;134.02;94.07;;;0.90;99.90;;;;;;5046034;28;20039;-80
2023/12/03 09:19:25;;;;;;;105.57;83.80;;;1.00;99.90;;;;;;5053951;28;20076;-79
2023/12/03 09:21:50;;;;;;;168.40;103.97;;;1.10;99.90;;;;;;5053908;28;20032;-79
2023/12/03 09:24:16;;;;;;;116.45;87.95;;;1.10;99.90;;;;;;5050610;28;20247;-79
2023/12/03 09:26:44;;;;;;;107.57;83.93;;;1.30;99.90;;;;;;5023929;28;20040;-82
2023/12/03 09:29:11;;;;;;;60.10;27.63;;;1.30;99.90;;;;;;5019867;28;20033;-83
2023/12/03 09:31:39;;;;;;;51.22;25.33;;;1.30;99.90;;;;;;5044361;28;20037;-83
2023/12/03 09:34:05;;;;;;;111.22;84.75;;;1.30;99.90;;;;;;5030387;28;20229;-83
2023/12/03 09:36:31;;;;;;;102.22;80.60;;;1.40;99.90;;;;;;5009808;28;20048;-85
2023/12/03 09:38:57;;;;;;;115.47;81.70;;;1.40;99.90;;;;;;5018261;28;20045;-83
2023/12/03 09:41:24;;;;;;;93.10;74.78;;;1.40;99.90;;;;;;5016315;28;20825;-81
2023/12/03 09:43:55;;;;;;;96.97;74.35;;;1.40;99.90;;;;;;5034315;28;20037;-79
2023/12/03 09:46:22;;;;;;;95.32;75.25;;;1.40;99.90;;;;;;5043575;28;20501;-79
2023/12/03 09:48:50;;;;;;;79.53;67.90;;;1.40;99.90;;;;;;5022427;28;20494;-81
2023/12/03 09:51:18;;;;;;;90.68;73.10;;;1.40;99.90;;;;;;5016287;28;20500;-81
2023/12/03 09:53:45;;;;;;;142.02;87.75;;;1.50;99.90;;;;;;5015750;28;20048;-81
2023/12/03 09:56:12;;;;;;;83.25;68.95;;;1.50;99.90;;;;;;5027036;28;20042;-80
2023/12/03 09:58:39;;;;;;;95.55;74.80;;;1.50;99.90;;;;;;5031996;28;20055;-80
2023/12/03 10:01:06;;;;;;;103.43;76.78;;;1.50;99.90;;;;;;5036443;28;20044;-80
2023/12/03 10:03:32;;;;;;;39.33;22.20;;;1.50;99.90;;;;;;5050810;28;20090;-80
2023/12/03 10:05:57;;;;;;;96.97;74.30;;;1.60;99.90;;;;;;5050387;28;20037;-80
2023/12/03 10:08:23;;;;;;;67.45;59.92;;;1.60;99.90;;;;;;5049999;28;20040;-80
2023/12/03 10:11:02;;;;;;;80.57;66.65;;;1.70;99.90;;;;;;5043602;28;20430;-81
2023/12/03 10:13:30;;;;;;;66.07;58.95;;;1.80;99.90;;;;;;5050268;28;20106;-81
2023/12/03 10:15:56;;;;;;;67.78;59.08;;;1.90;99.90;;;;;;5048079;28;20045;-81
2023/12/03 10:18:22;;;;;;;101.38;73.18;;;1.90;99.90;;;;;;5029021;28;20129;-80
2023/12/03 10:20:48;;;;;;;76.45;62.10;;;1.90;99.90;;;;;;5046050;28;20033;-80
2023/12/03 10:23:15;;;;;;;78.22;63.10;;;1.90;99.90;;;;;;5038091;28;20037;-81
2023/12/03 10:25:40;;;;;;;83.03;63.50;;;1.90;99.90;;;;;;5057436;28;20612;-81
2023/12/03 10:28:07;;;;;;;75.82;60.75;;;1.90;99.90;;;;;;5043001;28;20100;-81
2023/12/03 10:30:33;;;;;;;71.95;56.15;;;1.90;99.90;;;;;;5042993;28;20037;-81
2023/12/03 10:32:59;;;;;;;80.13;61.03;;;1.80;99.90;;;;;;5049810;28;20040;-81
2023/12/03 10:35:27;;;;;;;69.13;57.38;;;1.80;99.90;;;;;;5034702;28;20051;-81
2023/12/03 10:37:53;;;;;;;78.25;60.58;;;1.70;99.90;;;;;;5037362;28;20041;-80
2023/12/03 10:40:19;;;;;;;71.80;58.53;;;1.70;99.90;;;;;;5016890;28;20040;-81
2023/12/03 10:42:46;;;;;;;93.38;66.95;;;1.70;99.90;;;;;;5009555;28;20040;-81
2023/12/03 10:45:15;;;;;;;82.75;63.90;;;1.70;99.90;;;;;;5017677;28;20395;-80
2023/12/03 10:47:42;;;;;;;95.15;68.38;;;1.70;99.90;;;;;;5017810;28;20403;-80
2023/12/03 10:50:10;;;;;;;120.43;76.40;;;1.60;99.90;;;;;;5035116;28;20449;-81
2023/12/03 10:52:38;;;;;;;94.28;68.10;;;1.60;99.90;;;;;;5043391;28;20044;-80
2023/12/03 10:55:05;;;;;;;108.28;76.03;;;1.70;99.90;;;;;;5036489;28;20048;-81
2023/12/03 10:57:32;;;;;;;106.80;75.22;;;1.70;99.90;;;;;;5037206;28;20045;-81
2023/12/03 11:00:09;;;;;;;108.07;76.57;;;1.80;99.90;;;;;;5035566;28;20095;-81
2023/12/03 11:02:46;;;;;;;98.97;73.72;;;1.80;99.90;;;;;;5026927;28;20523;-80
2023/12/03 11:05:24;;;;;;;103.68;74.80;;;1.90;99.90;;;;;;5028543;28;20043;-80
2023/12/03 11:07:50;;;;;;;98.63;72.82;;;2.00;99.90;;;;;;5043100;28;20126;-81
2023/12/03 11:10:16;;;;;;;95.90;74.25;;;2.00;99.90;;;;;;5053406;28;20467;-81
2023/12/03 11:12:43;;;;;;;93.43;72.10;;;2.00;99.90;;;;;;5031876;28;20468;-80
2023/12/03 11:15:09;;;;;;;96.60;74.47;;;2.10;99.90;;;;;;5039809;28;20109;-82
2023/12/03 11:17:40;;;;;;;99.88;76.05;;;2.20;99.90;;;;;;5032128;28;20036;-83
2023/12/03 11:20:12;;;;;;;82.10;65.93;;;2.10;99.90;;;;;;5050788;28;20101;-80
2023/12/03 11:23:29;;;;;;;88.35;71.57;;;2.10;99.90;;;;;;5044693;28;20486;-80
2023/12/03 11:26:20;;;;;;;87.78;70.18;;;2.20;99.90;;;;;;5036307;28;20401;-80
2023/12/03 11:28:53;;;;;;;81.15;66.35;;;2.40;99.90;;;;;;5028589;28;20060;-80
2023/12/03 11:31:18;;;;;;;;;;;2.70;99.90;;;;;;5024017;28;20044;-80
2023/12/03 11:34:00;;;;;;;67.20;57.80;;;2.80;99.90;;;;;;5039331;28;20370;-80
2023/12/03 11:36:35;;;;;;;80.20;65.65;;;3.10;99.90;;;;;;5036699;28;20041;-80
2023/12/03 11:39:02;;;;;;;68.75;59.00;;;3.40;99.90;;;;;;5039443;28;20044;-80
2023/12/03 11:41:35;;;;;;;62.45;54.05;;;3.90;99.90;;;;;;5049558;28;20160;-80
2023/12/03 11:44:21;;;;;;;60.92;52.65;;;4.30;99.90;;;;;;5020514;28;20069;-80
2023/12/03 11:47:00;;;;;;;62.13;53.92;;;4.70;99.90;;;;;;5047725;28;20059;-80
2023/12/03 11:49:26;;;;;;;57.83;50.15;;;5.00;99.90;;;;;;5016734;28;20060;-80
2023/12/03 11:51:52;;;;;;;47.03;41.83;;;5.40;99.90;;;;;;5016523;28;20040;-81
2023/12/03 11:54:25;;;;;;;43.72;39.03;;;5.80;99.90;;;;;;5000190;28;20431;-80
2023/12/03 11:56:52;;;;;;;46.40;40.05;;;6.20;99.90;;;;;;5000083;28;20075;-82
2023/12/03 11:59:18;;;;;;;43.28;38.53;;;6.50;99.90;;;;;;5045436;28;20086;-81
2023/12/03 12:01:44;;;;;;;38.97;34.75;;;6.80;99.90;;;;;;5014490;28;20037;-81
2023/12/03 12:04:22;;;;;;;40.60;35.53;;;7.10;99.90;;;;;;5035451;28;20047;-81
2023/12/03 12:06:48;;;;;;;38.58;34.40;;;7.40;99.90;;;;;;5035599;28;20052;-81
2023/12/03 12:09:24;;;;;;;39.25;35.08;;;7.50;99.90;;;;;;5040516;28;20040;-82
2023/12/03 12:11:50;;;;;;;36.83;32.90;;;7.60;99.90;;;;;;5034602;28;20395;-81
2023/12/03 12:14:17;;;;;;;36.75;32.65;;;7.50;99.90;;;;;;5054919;28;20113;-80
2023/12/03 12:16:43;;;;;;;38.70;32.95;;;7.40;99.90;;;;;;5046148;28;20067;-81
2023/12/03 12:19:09;;;;;;;34.70;31.08;;;7.20;99.90;;;;;;5055413;28;20517;-81
2023/12/03 12:21:34;;;;;;;36.33;32.15;;;6.90;99.90;;;;;;5046380;28;20041;-81
2023/12/03 12:24:00;;;;;;;34.65;30.95;;;6.50;99.90;;;;;;5038443;28;20048;-81
2023/12/03 12:26:25;;;;;;;33.13;29.52;;;6.10;99.90;;;;;;5047647;28;20103;-81